createdAt,value
2023-03-22T00:00:45.998Z,9.19
2023-03-22T00:03:32.141Z,9.13
2023-03-22T00:06:18.990Z,10.12
2023-03-22T00:09:05.400Z,10.97
2023-03-22T00:11:52.005Z,11.34
2023-03-22T00:14:38.759Z,10.74
2023-03-22T00:17:26.914Z,10.01
2023-03-22T00:20:13.736Z,9.46
2023-03-22T00:23:00.807Z,9.35
2023-03-22T00:25:48.178Z,10.24
2023-03-22T00:28:35.715Z,10.96
2023-03-22T00:31:22.332Z,11.54
2023-03-22T00:34:09.227Z,11.93
2023-03-22T00:36:55.684Z,11.36
2023-03-22T00:39:42.504Z,10.43
2023-03-22T00:42:28.930Z,9.77
2023-03-22T00:45:15.596Z,9.62
2023-03-22T00:48:02.074Z,10.49
2023-03-22T00:50:48.813Z,11.39
2023-03-22T00:53:41.102Z,11.80
2023-03-22T00:56:29.250Z,10.98
2023-03-22T00:59:23.766Z,10.14
2023-03-22T01:02:14.084Z,9.85
2023-03-22T01:05:00.280Z,10.60
2023-03-22T01:07:50.034Z,11.29
2023-03-22T01:10:38.618Z,11.65
2023-03-22T01:13:25.243Z,11.04
2023-03-22T01:16:11.570Z,10.20
2023-03-22T01:18:58.571Z,10.24
2023-03-22T01:21:45.408Z,11.07
2023-03-22T01:24:32.428Z,11.62
2023-03-22T01:27:18.699Z,11.70
2023-03-22T01:30:06.636Z,10.94
2023-03-22T01:32:53.291Z,10.17
2023-03-22T01:35:39.748Z,10.31
2023-03-22T01:38:27.061Z,11.06
2023-03-22T01:41:17.148Z,11.56
2023-03-22T01:44:12.093Z,11.99
2023-03-22T01:46:58.662Z,12.15
2023-03-22T01:49:45.529Z,11.56
2023-03-22T01:52:31.767Z,10.67
2023-03-22T01:55:25.452Z,10.50
2023-03-22T01:58:37.459Z,11.36
2023-03-22T02:01:25.251Z,11.82
2023-03-22T02:04:22.862Z,11.97
2023-03-22T02:07:15.306Z,11.25
2023-03-22T02:10:03.525Z,10.67
2023-03-22T02:13:50.179Z,11.36
2023-03-22T02:17:59.157Z,12.11
2023-03-22T02:21:26.708Z,11.86
2023-03-22T02:25:05.837Z,10.80
2023-03-22T02:28:28.957Z,11.10
2023-03-22T02:31:49.162Z,11.82
2023-03-22T02:35:16.143Z,12.15
2023-03-22T02:38:26.578Z,12.23
2023-03-22T02:42:06.990Z,11.27
2023-03-22T02:45:04.726Z,10.88
2023-03-22T02:48:28.008Z,11.49
2023-03-22T02:51:23.927Z,11.85
2023-03-22T02:54:23.485Z,12.09
2023-03-22T02:57:20.193Z,12.28
2023-03-22T03:00:10.818Z,12.35
2023-03-22T03:03:10.539Z,11.56
2023-03-22T03:06:05.420Z,11.11
2023-03-22T03:08:57.363Z,11.70
2023-03-22T03:11:53.397Z,11.95
2023-03-22T03:14:40.330Z,12.13
2023-03-22T03:18:08.119Z,12.40
2023-03-22T03:21:50.568Z,12.42
2023-03-22T03:24:47.863Z,12.41
2023-03-22T03:27:49.192Z,12.61
2023-03-22T03:30:51.341Z,12.54
2023-03-22T03:33:47.767Z,11.48
2023-03-22T03:36:40.307Z,11.19
2023-03-22T03:39:32.716Z,11.76
2023-03-22T03:42:22.089Z,12.03
2023-03-22T03:45:09.744Z,12.11
2023-03-22T03:48:03.384Z,12.17
2023-03-22T03:50:53.493Z,12.16
2023-03-22T03:53:40.117Z,12.16
2023-03-22T03:56:26.818Z,12.25
2023-03-22T03:59:18.509Z,12.18
2023-03-22T04:02:06.207Z,12.33
2023-03-22T04:04:52.692Z,12.31
2023-03-22T04:07:39.718Z,12.37
2023-03-22T04:10:26.406Z,12.36
2023-03-22T04:13:12.785Z,12.39
2023-03-22T04:16:01.466Z,12.56
2023-03-22T04:18:50.803Z,12.55
2023-03-22T04:21:37.386Z,12.43
2023-03-22T04:24:23.948Z,12.45
2023-03-22T04:27:10.808Z,12.43
2023-03-22T04:30:19.715Z,12.28
2023-03-22T04:33:31.921Z,12.33
2023-03-22T04:36:38.814Z,12.21
2023-03-22T04:39:40.954Z,12.39
2023-03-22T04:42:50.745Z,12.29
2023-03-22T04:45:46.247Z,12.32
2023-03-22T04:48:40.817Z,12.43
2023-03-22T04:51:29.935Z,12.53
2023-03-22T04:54:42.348Z,12.50
2023-03-22T04:57:29.002Z,12.53
2023-03-22T05:00:17.995Z,12.50
2023-03-22T05:03:05.175Z,12.44
2023-03-22T05:06:07.522Z,12.51
2023-03-22T05:09:08.160Z,12.54
2023-03-22T05:11:55.217Z,12.64
2023-03-22T05:15:00.405Z,12.74
2023-03-22T05:17:50.349Z,12.79
2023-03-22T05:20:37.132Z,12.92
2023-03-22T05:23:36.534Z,12.82
2023-03-22T05:26:27.254Z,12.73
2023-03-22T05:29:14.084Z,12.70
2023-03-22T05:32:24.990Z,12.77
2023-03-22T05:35:13.503Z,12.90
2023-03-22T05:38:05.664Z,12.93
2023-03-22T05:40:54.106Z,12.88
2023-03-22T05:43:41.626Z,12.89
2023-03-22T05:46:29.907Z,13.06
2023-03-22T05:49:46.388Z,13.08
2023-03-22T05:52:32.738Z,12.95
2023-03-22T05:55:42.386Z,13.00
2023-03-22T05:58:31.096Z,12.88
2023-03-22T06:01:19.755Z,12.96
2023-03-22T06:04:06.258Z,13.17
2023-03-22T06:07:18.824Z,13.38
2023-03-22T06:10:13.968Z,13.24
2023-03-22T06:13:00.889Z,13.18
2023-03-22T06:15:49.414Z,13.07
2023-03-22T06:18:42.450Z,13.16
2023-03-22T06:21:30.933Z,13.15
2023-03-22T06:24:17.496Z,13.11
2023-03-22T06:27:05.979Z,13.31
2023-03-22T06:29:54.216Z,13.43
2023-03-22T06:32:42.996Z,13.46
2023-03-22T06:35:29.811Z,13.43
2023-03-22T06:38:16.838Z,13.44
2023-03-22T06:41:04.249Z,13.46
2023-03-22T06:43:50.751Z,13.50
2023-03-22T06:46:55.981Z,13.47
2023-03-22T06:50:01.273Z,13.49
2023-03-22T06:53:01.178Z,13.38
2023-03-22T06:55:47.962Z,13.35
2023-03-22T06:58:40.455Z,13.43
2023-03-22T07:01:27.192Z,13.61
2023-03-22T07:04:14.883Z,13.70
2023-03-22T07:07:02.787Z,13.77
2023-03-22T07:09:49.440Z,13.98
2023-03-22T07:12:36.191Z,14.21
2023-03-22T07:15:27.255Z,14.32
2023-03-22T07:18:28.285Z,14.42
2023-03-22T07:21:15.102Z,14.46
2023-03-22T07:24:02.805Z,14.60
2023-03-22T07:26:50.987Z,14.80
2023-03-22T07:29:39.662Z,15.07
2023-03-22T07:32:26.626Z,15.39
2023-03-22T07:35:39.111Z,14.93
2023-03-22T07:38:28.444Z,13.83
2023-03-22T07:41:14.873Z,13.93
2023-03-22T07:44:18.001Z,14.75
2023-03-22T07:47:39.481Z,15.48
2023-03-22T07:50:39.435Z,16.05
2023-03-22T07:53:26.438Z,16.34
2023-03-22T07:56:13.105Z,15.80
2023-03-22T07:58:59.976Z,15.25
2023-03-22T08:01:46.755Z,15.65
2023-03-22T08:04:46.438Z,16.31
2023-03-22T08:07:41.924Z,15.84
2023-03-22T08:10:31.119Z,14.88
2023-03-22T08:13:17.748Z,14.40
2023-03-22T08:16:05.740Z,15.04
2023-03-22T08:18:52.332Z,15.57
2023-03-22T08:21:39.800Z,15.36
2023-03-22T08:24:29.206Z,14.66
2023-03-22T08:27:24.928Z,14.84
2023-03-22T08:30:12.557Z,15.63
2023-03-22T08:32:59.224Z,15.81
2023-03-22T08:35:46.521Z,15.31
2023-03-22T08:38:33.400Z,14.86
2023-03-22T08:41:19.848Z,14.75
2023-03-22T08:44:06.645Z,15.63
2023-03-22T08:46:54.638Z,16.64
2023-03-22T08:49:41.502Z,16.70
2023-03-22T08:52:33.827Z,16.46
2023-03-22T08:55:24.263Z,16.37
2023-03-22T08:58:28.710Z,16.76
2023-03-22T09:01:38.504Z,18.28
2023-03-22T09:04:27.219Z,19.86
2023-03-22T09:07:14.129Z,20.70
2023-03-22T09:10:01.014Z,20.75
2023-03-22T09:12:48.398Z,20.66
2023-03-22T09:15:35.278Z,20.08
2023-03-22T09:18:28.493Z,20.04
2023-03-22T09:21:17.483Z,21.21
2023-03-22T09:24:17.718Z,22.19
2023-03-22T09:27:07.857Z,22.64
2023-03-22T09:29:54.949Z,22.73
2023-03-22T09:32:41.720Z,21.96
2023-03-22T09:35:30.426Z,20.83
2023-03-22T09:38:21.361Z,19.62
2023-03-22T09:41:20.637Z,18.60
2023-03-22T09:44:21.823Z,17.60
2023-03-22T09:47:17.277Z,16.81
2023-03-22T09:50:15.616Z,16.20
2023-03-22T09:53:02.244Z,15.69
2023-03-22T09:55:57.161Z,15.37
2023-03-22T09:59:04.184Z,15.19
2023-03-22T10:02:01.269Z,15.37
2023-03-22T10:05:31.274Z,15.87
2023-03-22T10:08:22.767Z,16.80
2023-03-22T10:11:34.237Z,17.65
2023-03-22T10:14:44.386Z,17.96
2023-03-22T10:17:31.371Z,18.16
2023-03-22T10:21:08.795Z,18.16
2023-03-22T10:24:16.645Z,18.45
2023-03-22T10:27:12.862Z,18.62
2023-03-22T10:30:23.913Z,18.22
2023-03-22T10:33:24.604Z,18.12
2023-03-22T10:36:14.397Z,18.78
2023-03-22T10:39:38.508Z,20.43
2023-03-22T10:42:29.890Z,21.97
2023-03-22T10:45:16.503Z,22.02
2023-03-22T10:48:19.130Z,21.67
2023-03-22T10:51:07.114Z,21.64
2023-03-22T10:53:57.536Z,22.08
2023-03-22T10:56:45.106Z,22.92
2023-03-22T10:59:51.614Z,23.67
2023-03-22T11:02:52.841Z,24.58
2023-03-22T11:05:39.534Z,25.10
2023-03-22T11:08:25.953Z,25.43
2023-03-22T11:11:29.469Z,25.82
2023-03-22T11:14:43.246Z,25.91
2023-03-22T11:17:30.532Z,25.68
2023-03-22T11:20:19.249Z,25.45
2023-03-22T11:23:06.427Z,25.07
2023-03-22T11:25:58.744Z,25.06
2023-03-22T11:28:50.583Z,25.34
2023-03-22T11:31:57.994Z,25.29
2023-03-22T11:34:45.432Z,24.59
2023-03-22T11:37:31.696Z,23.57
2023-03-22T11:40:34.979Z,22.50
2023-03-22T11:43:27.250Z,21.71
2023-03-22T11:46:18.721Z,21.65
2023-03-22T11:49:13.962Z,21.76
2023-03-22T11:52:10.560Z,21.42
2023-03-22T11:55:00.376Z,21.32
2023-03-22T11:57:48.597Z,21.44
2023-03-22T12:00:39.389Z,21.58
2023-03-22T12:03:35.529Z,21.30
2023-03-22T12:06:28.955Z,20.71
2023-03-22T12:09:48.432Z,19.92
2023-03-22T12:12:42.194Z,19.01
2023-03-22T12:15:36.934Z,18.32
2023-03-22T12:18:48.265Z,17.89
2023-03-22T12:21:34.890Z,17.62
2023-03-22T12:24:31.824Z,17.42
2023-03-22T12:27:33.644Z,17.20
2023-03-22T12:30:27.879Z,16.89
2023-03-22T12:33:50.975Z,16.62
2023-03-22T12:36:46.539Z,16.31
2023-03-22T12:40:01.416Z,16.14
2023-03-22T12:43:11.037Z,16.03
2023-03-22T12:46:01.432Z,15.86
2023-03-22T12:49:10.539Z,15.75
2023-03-22T12:52:13.475Z,15.63
2023-03-22T12:55:02.287Z,15.48
2023-03-22T12:57:51.830Z,15.34
2023-03-22T13:01:00.615Z,15.20
2023-03-22T13:03:54.177Z,15.11
2023-03-22T13:06:45.856Z,14.96
2023-03-22T13:09:41.894Z,14.81
2023-03-22T13:12:32.483Z,14.66
2023-03-22T13:15:41.746Z,14.51
2023-03-22T13:18:35.817Z,14.33
2023-03-22T13:21:47.888Z,14.25
2023-03-22T13:24:34.384Z,14.28
2023-03-22T13:27:20.910Z,14.25
2023-03-22T13:30:32.404Z,14.15
2023-03-22T13:33:27.979Z,14.01
2023-03-22T13:36:25.440Z,13.95
2023-03-22T13:39:16.441Z,13.90
2023-03-22T13:42:18.201Z,13.89
2023-03-22T13:45:32.817Z,13.85
2023-03-22T13:48:43.647Z,13.93
2023-03-22T13:51:32.637Z,14.03
2023-03-22T13:54:30.311Z,14.09
2023-03-22T13:57:45.801Z,14.13
2023-03-22T14:00:38.227Z,14.18
2023-03-22T14:03:36.808Z,14.19
2023-03-22T14:06:33.186Z,14.21
2023-03-22T14:09:39.145Z,14.18
2023-03-22T14:13:13.288Z,14.10
2023-03-22T14:16:21.196Z,13.99
2023-03-22T14:19:20.509Z,13.92
